createdAt,value
2023-06-30T00:01:30.055Z,1.50
2023-06-30T00:04:32.841Z,1.80
2023-06-30T00:07:35.308Z,2.30
2023-06-30T00:10:37.662Z,2.20
2023-06-30T00:13:40.006Z,2.25
2023-06-30T00:16:42.226Z,1.88
2023-06-30T00:19:44.287Z,1.83
2023-06-30T00:22:46.808Z,2.28
2023-06-30T00:25:49.040Z,2.13
2023-06-30T00:28:51.124Z,2.28
2023-06-30T00:31:53.277Z,2.03
2023-06-30T00:34:55.342Z,2.22
2023-06-30T00:37:57.516Z,2.42
2023-06-30T00:40:59.607Z,2.22
2023-06-30T00:44:01.783Z,2.63
2023-06-30T00:47:04.285Z,1.75
2023-06-30T00:50:06.831Z,2.28
2023-06-30T00:53:09.131Z,1.83
2023-06-30T00:56:11.265Z,2.08
2023-06-30T00:59:13.423Z,2.28
2023-06-30T01:02:23.966Z,2.05
2023-06-30T01:06:09.763Z,1.67
2023-06-30T01:09:24.440Z,1.75
2023-06-30T01:12:27.326Z,2.10
2023-06-30T01:15:30.496Z,1.83
2023-06-30T01:18:35.142Z,1.58
2023-06-30T01:21:40.188Z,2.38
2023-06-30T01:24:43.372Z,1.80
2023-06-30T01:27:45.546Z,1.58
2023-06-30T01:30:48.537Z,2.38
2023-06-30T01:33:51.035Z,1.50
2023-06-30T01:36:53.169Z,1.95
2023-06-30T01:39:55.341Z,2.15
2023-06-30T01:42:58.367Z,2.17
2023-06-30T01:46:01.174Z,2.60
2023-06-30T01:49:04.130Z,2.25
2023-06-30T01:52:06.690Z,2.13
2023-06-30T01:55:10.566Z,1.90
2023-06-30T01:58:12.665Z,2.10
2023-06-30T02:01:14.930Z,1.98
2023-06-30T02:04:17.640Z,2.22
2023-06-30T02:07:22.548Z,1.33
2023-06-30T02:10:24.705Z,2.05
2023-06-30T02:13:26.854Z,1.60
2023-06-30T02:16:29.087Z,2.00
2023-06-30T02:19:31.134Z,1.75
2023-06-30T02:22:33.926Z,2.17
2023-06-30T02:25:35.989Z,2.08
2023-06-30T02:28:38.193Z,2.00
2023-06-30T02:31:40.473Z,1.95
2023-06-30T02:34:42.640Z,2.05
2023-06-30T02:37:45.122Z,1.65
2023-06-30T02:40:47.414Z,2.08
2023-06-30T02:43:49.615Z,2.60
2023-06-30T02:46:51.800Z,1.90
2023-06-30T02:49:53.918Z,2.40
2023-06-30T02:52:56.694Z,2.28
2023-06-30T02:55:58.863Z,1.52
2023-06-30T02:59:01.324Z,2.22
2023-06-30T03:02:04.061Z,2.33
2023-06-30T03:05:08.090Z,1.70
2023-06-30T03:08:11.434Z,1.58
2023-06-30T03:11:14.950Z,2.40
2023-06-30T03:14:17.201Z,2.20
2023-06-30T03:17:20.206Z,1.95
2023-06-30T03:20:22.918Z,2.75
2023-06-30T03:23:25.429Z,2.67
2023-06-30T03:26:27.929Z,2.38
2023-06-30T03:29:30.100Z,2.70
2023-06-30T03:32:33.733Z,2.70
2023-06-30T03:35:35.972Z,2.42
2023-06-30T03:38:38.110Z,2.28
2023-06-30T03:41:40.475Z,2.42
2023-06-30T03:44:56.303Z,2.90
2023-06-30T03:47:59.725Z,2.42
2023-06-30T03:51:01.878Z,2.35
2023-06-30T03:54:04.079Z,2.72
2023-06-30T03:57:06.298Z,2.45
2023-06-30T04:00:09.250Z,2.90
2023-06-30T04:03:14.792Z,2.72
2023-06-30T04:06:17.111Z,3.10
2023-06-30T04:09:19.569Z,1.90
2023-06-30T04:12:22.461Z,2.38
2023-06-30T04:15:24.690Z,3.28
2023-06-30T04:18:26.752Z,2.63
2023-06-30T04:21:31.258Z,2.58
2023-06-30T04:24:33.440Z,4.22
2023-06-30T04:27:36.419Z,2.67
2023-06-30T04:30:38.944Z,2.83
2023-06-30T04:33:41.663Z,2.40
2023-06-30T04:36:44.629Z,3.05
2023-06-30T04:39:46.846Z,2.72
2023-06-30T04:42:49.467Z,2.22
2023-06-30T04:45:51.749Z,2.95
2023-06-30T04:48:54.267Z,3.10
2023-06-30T04:51:59.366Z,2.33
2023-06-30T04:55:01.536Z,2.85
2023-06-30T04:58:04.002Z,2.50
2023-06-30T05:01:06.566Z,3.90
2023-06-30T05:04:09.075Z,2.53
2023-06-30T05:07:11.763Z,1.95
2023-06-30T05:10:14.377Z,2.83
2023-06-30T05:13:16.957Z,2.45
2023-06-30T05:16:19.162Z,2.55
2023-06-30T05:19:24.704Z,2.78
2023-06-30T05:22:27.083Z,2.55
2023-06-30T05:25:29.760Z,2.67
2023-06-30T05:28:32.267Z,3.03
2023-06-30T05:31:34.770Z,3.20
2023-06-30T05:34:37.489Z,2.10
2023-06-30T05:37:40.532Z,2.83
2023-06-30T05:40:43.078Z,2.97
2023-06-30T05:43:45.686Z,3.00
2023-06-30T05:46:47.924Z,2.53
2023-06-30T05:49:50.215Z,3.25
2023-06-30T05:52:52.465Z,2.88
2023-06-30T05:55:54.658Z,2.58
2023-06-30T05:58:57.416Z,3.15
2023-06-30T06:01:59.941Z,2.28
2023-06-30T06:05:02.731Z,3.20
2023-06-30T06:08:06.408Z,2.30
2023-06-30T06:11:11.940Z,2.67
2023-06-30T06:14:14.304Z,2.40
2023-06-30T06:17:17.154Z,2.97
2023-06-30T06:20:19.419Z,2.90
2023-06-30T06:23:22.286Z,2.03
2023-06-30T06:26:24.567Z,2.25
2023-06-30T06:29:26.803Z,1.77
2023-06-30T06:32:35.439Z,2.35
2023-06-30T06:35:52.637Z,2.70
2023-06-30T06:39:08.824Z,3.22
2023-06-30T06:42:27.352Z,2.33
2023-06-30T06:45:29.572Z,2.47
2023-06-30T06:48:31.585Z,2.60
2023-06-30T06:51:35.945Z,2.72
2023-06-30T06:54:38.056Z,2.78
2023-06-30T06:57:40.792Z,3.88
2023-06-30T07:00:44.757Z,2.92
2023-06-30T07:03:47.303Z,2.50
2023-06-30T07:06:49.472Z,2.50
2023-06-30T07:09:54.645Z,4.00
2023-06-30T07:12:56.965Z,2.20
2023-06-30T07:15:59.197Z,2.65
2023-06-30T07:19:01.427Z,2.78
2023-06-30T07:22:03.638Z,2.80
2023-06-30T07:25:06.175Z,4.00
2023-06-30T07:28:09.350Z,3.20
2023-06-30T07:31:11.807Z,3.15
2023-06-30T07:34:14.085Z,2.85
2023-06-30T07:37:16.611Z,3.58
2023-06-30T07:40:21.849Z,3.97
2023-06-30T07:43:26.081Z,3.25
2023-06-30T07:46:28.313Z,9.20
2023-06-30T07:49:30.567Z,4.07
2023-06-30T07:52:32.708Z,5.05
2023-06-30T07:55:38.287Z,3.75
2023-06-30T07:58:40.435Z,3.55
2023-06-30T08:01:42.526Z,3.10
2023-06-30T08:04:45.020Z,4.05
2023-06-30T08:07:50.382Z,4.72
2023-06-30T08:10:53.652Z,4.20
2023-06-30T08:13:55.861Z,3.95
2023-06-30T08:16:58.013Z,4.82
2023-06-30T08:20:03.630Z,3.60
2023-06-30T08:23:06.145Z,4.22
2023-06-30T08:26:08.284Z,2.75
2023-06-30T08:29:10.330Z,3.92
2023-06-30T08:32:12.493Z,3.50
2023-06-30T08:35:14.716Z,2.92
2023-06-30T08:38:17.131Z,3.63
2023-06-30T08:41:19.748Z,2.90
2023-06-30T08:44:26.673Z,2.90
2023-06-30T08:47:32.049Z,3.75
2023-06-30T08:50:34.990Z,4.15
2023-06-30T08:53:38.183Z,3.35
2023-06-30T08:56:40.689Z,3.40
2023-06-30T08:59:46.233Z,3.08
2023-06-30T09:02:50.016Z,3.05
2023-06-30T09:05:56.239Z,2.70
2023-06-30T09:09:05.245Z,3.58
2023-06-30T09:12:08.737Z,4.03
2023-06-30T09:15:11.500Z,3.20
2023-06-30T09:18:14.344Z,3.42
2023-06-30T09:21:16.542Z,3.03
2023-06-30T09:24:19.695Z,3.95
2023-06-30T09:27:21.907Z,3.33
2023-06-30T09:30:38.393Z,2.65
2023-06-30T09:33:40.467Z,3.90
2023-06-30T09:36:52.190Z,3.88
2023-06-30T09:39:54.241Z,3.72
2023-06-30T09:42:56.309Z,4.95
2023-06-30T09:46:02.963Z,3.03
2023-06-30T09:49:05.101Z,4.28
2023-06-30T09:52:07.480Z,3.80
2023-06-30T09:55:18.077Z,8.23
2023-06-30T09:58:21.813Z,4.13
2023-06-30T10:01:23.969Z,5.15
2023-06-30T10:04:27.624Z,4.10
2023-06-30T10:07:32.057Z,3.33
2023-06-30T10:10:34.325Z,4.80
2023-06-30T10:13:37.887Z,4.40
2023-06-30T10:16:40.825Z,5.20
2023-06-30T10:19:43.509Z,4.65
2023-06-30T10:22:46.193Z,4.60
2023-06-30T10:25:50.215Z,4.22
2023-06-30T10:28:52.987Z,4.25
2023-06-30T10:34:59.113Z,5.13
2023-06-30T10:38:02.144Z,5.43
2023-06-30T10:41:15.724Z,4.53
2023-06-30T10:47:23.319Z,3.78
2023-06-30T11:03:17.384Z,3.85
2023-06-30T11:06:22.507Z,3.65
2023-06-30T11:09:24.579Z,2.53
2023-06-30T11:12:28.765Z,2.38
2023-06-30T11:15:37.404Z,2.53
2023-06-30T11:18:40.309Z,3.65
2023-06-30T11:21:42.659Z,3.17
2023-06-30T11:24:46.349Z,2.38
2023-06-30T11:27:48.923Z,3.10
2023-06-30T11:30:51.162Z,1.70
2023-06-30T11:33:55.052Z,1.30
2023-06-30T11:36:57.019Z,2.28
2023-06-30T11:40:00.005Z,2.13
2023-06-30T11:43:01.980Z,2.17
2023-06-30T11:46:04.127Z,1.98
2023-06-30T11:49:06.372Z,2.70
2023-06-30T11:52:10.872Z,3.25
2023-06-30T11:55:14.671Z,2.45
2023-06-30T11:58:19.807Z,2.78
2023-06-30T12:01:22.035Z,2.38
2023-06-30T12:04:24.177Z,2.42
2023-06-30T12:07:26.330Z,1.90
2023-06-30T12:10:38.970Z,1.80
2023-06-30T12:13:41.458Z,2.50
2023-06-30T12:19:46.884Z,1.45
2023-06-30T12:22:52.309Z,2.13
2023-06-30T12:25:57.320Z,2.67
2023-06-30T12:29:05.740Z,2.05
2023-06-30T12:32:16.976Z,2.50
2023-06-30T12:35:29.298Z,2.20
2023-06-30T12:38:31.263Z,1.67
2023-06-30T12:44:35.166Z,1.27
2023-06-30T12:50:39.205Z,2.88
2023-06-30T12:56:43.244Z,3.17
2023-06-30T12:59:45.292Z,2.05
2023-06-30T13:05:49.330Z,2.13
2023-06-30T13:08:51.377Z,2.08
2023-06-30T13:14:55.352Z,2.05
2023-06-30T13:17:57.852Z,2.22
2023-06-30T13:20:59.798Z,2.22
2023-06-30T13:24:01.911Z,3.33
2023-06-30T13:27:04.135Z,1.40
2023-06-30T13:30:07.138Z,2.58
2023-06-30T13:33:10.982Z,2.75
2023-06-30T13:36:15.061Z,2.47
2023-06-30T13:39:17.104Z,3.92
2023-06-30T13:42:19.202Z,2.92
2023-06-30T13:45:23.502Z,2.53
2023-06-30T13:48:25.452Z,2.83
2023-06-30T13:51:27.610Z,2.00
2023-06-30T13:54:29.596Z,2.13
2023-06-30T13:57:31.602Z,2.88
2023-06-30T14:00:33.560Z,1.90
2023-06-30T14:03:35.870Z,2.67
2023-06-30T14:06:38.051Z,2.28
2023-06-30T14:09:42.655Z,2.60
2023-06-30T14:12:45.208Z,2.88
2023-06-30T14:15:47.687Z,3.35
2023-06-30T14:18:50.125Z,2.95
2023-06-30T14:21:52.154Z,2.85
2023-06-30T14:24:54.230Z,2.40
2023-06-30T14:27:56.355Z,2.20
2023-06-30T14:30:58.442Z,2.90
2023-06-30T14:34:00.412Z,1.85
2023-06-30T14:37:02.554Z,3.05
2023-06-30T14:40:05.255Z,2.20
2023-06-30T14:43:07.286Z,2.95
2023-06-30T14:46:09.364Z,3.63
2023-06-30T14:49:11.514Z,3.53
2023-06-30T14:52:14.117Z,3.97
2023-06-30T14:55:16.609Z,2.42
2023-06-30T14:58:18.726Z,3.15
2023-06-30T15:01:23.332Z,1.95
2023-06-30T15:04:27.137Z,3.95
2023-06-30T15:07:29.186Z,2.35
2023-06-30T15:10:31.733Z,3.00
2023-06-30T15:13:33.759Z,3.03
2023-06-30T15:16:35.841Z,3.17
2023-06-30T15:19:38.003Z,2.85
2023-06-30T15:22:40.094Z,2.17
2023-06-30T15:25:42.482Z,2.88
2023-06-30T15:28:45.000Z,3.25
2023-06-30T15:31:50.050Z,2.60
2023-06-30T15:34:53.366Z,2.90
2023-06-30T15:37:55.391Z,4.13
2023-06-30T15:41:03.641Z,3.28
2023-06-30T15:44:13.668Z,2.15
2023-06-30T15:47:15.928Z,4.10
2023-06-30T15:50:18.450Z,2.63
2023-06-30T15:53:22.970Z,2.13
2023-06-30T15:56:25.219Z,3.00
2023-06-30T15:59:27.295Z,3.00
2023-06-30T16:02:29.357Z,3.33
2023-06-30T16:05:31.618Z,2.40
2023-06-30T16:08:33.841Z,3.25
2023-06-30T16:11:35.918Z,3.03
2023-06-30T16:14:37.951Z,2.38
2023-06-30T16:17:39.980Z,2.38
2023-06-30T16:20:42.617Z,3.55
2023-06-30T16:23:44.669Z,2.65
2023-06-30T16:26:46.783Z,3.13
2023-06-30T16:29:50.658Z,3.30
2023-06-30T16:32:54.050Z,2.72
2023-06-30T16:35:56.413Z,4.65
2023-06-30T16:39:01.428Z,3.50
2023-06-30T16:42:03.646Z,3.00
2023-06-30T16:45:05.928Z,3.85
2023-06-30T16:48:08.045Z,3.92
2023-06-30T16:51:10.102Z,2.80
2023-06-30T16:54:12.138Z,3.85
2023-06-30T16:57:14.248Z,2.88
2023-06-30T17:00:16.710Z,3.67
2023-06-30T17:03:25.038Z,4.22
2023-06-30T17:06:27.566Z,3.95
2023-06-30T17:09:29.655Z,2.83
2023-06-30T17:12:34.483Z,3.33
2023-06-30T17:15:36.508Z,3.67
2023-06-30T17:18:38.527Z,2.17
2023-06-30T17:21:40.526Z,3.13
2023-06-30T17:24:42.686Z,4.78
2023-06-30T17:27:45.312Z,2.75
2023-06-30T17:30:47.511Z,2.75
2023-06-30T17:33:56.053Z,3.38
2023-06-30T17:37:08.019Z,5.20
2023-06-30T17:40:11.977Z,4.00
2023-06-30T17:43:14.089Z,4.85
2023-06-30T17:46:16.259Z,3.28
2023-06-30T17:49:28.215Z,4.63
2023-06-30T17:52:30.251Z,3.60
2023-06-30T17:55:32.362Z,4.03
2023-06-30T17:58:34.382Z,2.78
2023-06-30T18:01:36.837Z,4.47
2023-06-30T18:04:39.486Z,3.22
2023-06-30T18:07:41.573Z,4.60
2023-06-30T18:10:43.997Z,3.22
2023-06-30T18:13:49.096Z,3.50
2023-06-30T18:16:51.257Z,2.78
2023-06-30T18:19:53.296Z,4.55
2023-06-30T18:22:55.386Z,2.65
2023-06-30T18:25:57.375Z,3.70
2023-06-30T18:28:59.422Z,4.15
2023-06-30T18:32:01.557Z,3.08
2023-06-30T18:35:04.009Z,4.15
2023-06-30T18:38:06.105Z,3.17
2023-06-30T18:41:08.215Z,3.33
2023-06-30T18:44:10.229Z,3.50
2023-06-30T18:47:12.304Z,2.42
2023-06-30T18:50:14.716Z,3.63
2023-06-30T18:53:16.765Z,3.10
2023-06-30T18:56:18.795Z,3.67
2023-06-30T18:59:20.956Z,4.13
2023-06-30T19:02:23.440Z,3.05
2023-06-30T19:05:25.601Z,2.92
2023-06-30T19:08:28.340Z,3.30
2023-06-30T19:11:30.610Z,3.70
2023-06-30T19:14:32.776Z,3.70
2023-06-30T19:17:35.293Z,2.90
2023-06-30T19:20:37.520Z,3.75
2023-06-30T19:23:40.422Z,3.15
2023-06-30T19:26:42.578Z,3.20
2023-06-30T19:29:44.760Z,3.38
2023-06-30T19:32:47.446Z,4.57
2023-06-30T19:35:49.982Z,3.30
2023-06-30T19:38:52.119Z,3.30
2023-06-30T19:41:54.293Z,1.48
2023-06-30T19:44:56.628Z,3.00
2023-06-30T19:51:12.347Z,2.47
2023-06-30T19:57:24.381Z,1.92
2023-06-30T20:00:26.620Z,3.13
2023-06-30T20:03:30.812Z,2.03
2023-06-30T20:06:33.241Z,1.95
2023-06-30T20:09:35.389Z,1.92
2023-06-30T20:12:37.660Z,2.45
2023-06-30T20:15:39.815Z,2.35
2023-06-30T20:18:41.927Z,2.28
2023-06-30T20:21:43.984Z,1.35
2023-06-30T20:24:46.167Z,2.03
2023-06-30T20:27:54.326Z,2.08
2023-06-30T20:31:03.327Z,1.30
2023-06-30T20:34:05.702Z,1.90
2023-06-30T20:37:07.857Z,1.70
2023-06-30T20:40:10.501Z,1.17
2023-06-30T20:43:12.838Z,1.42
2023-06-30T20:46:14.991Z,1.80
2023-06-30T20:49:17.478Z,0.60
2023-06-30T20:52:19.677Z,1.25
2023-06-30T20:55:24.206Z,1.13
2023-06-30T20:58:26.293Z,1.10
2023-06-30T21:01:28.507Z,2.25
2023-06-30T21:04:39.823Z,1.27
2023-06-30T21:07:43.046Z,1.08
2023-06-30T21:10:51.460Z,0.88
2023-06-30T21:13:53.857Z,2.03
2023-06-30T21:16:56.074Z,1.42
2023-06-30T21:19:59.971Z,1.27
2023-06-30T21:23:02.159Z,1.00
2023-06-30T21:26:04.577Z,0.73
2023-06-30T21:29:07.166Z,1.40
2023-06-30T21:32:09.706Z,0.80
2023-06-30T21:35:12.184Z,1.15
2023-06-30T21:38:14.426Z,0.90
2023-06-30T21:41:16.688Z,0.70
2023-06-30T21:44:19.035Z,0.80
2023-06-30T21:47:21.145Z,1.38
2023-06-30T21:50:23.287Z,0.73
2023-06-30T21:53:25.590Z,1.17
2023-06-30T21:56:27.749Z,1.00
2023-06-30T21:59:30.028Z,1.08
2023-06-30T22:02:32.709Z,0.80
2023-06-30T22:05:34.998Z,0.80
2023-06-30T22:08:37.182Z,1.10
2023-06-30T22:11:39.398Z,1.20
2023-06-30T22:14:41.685Z,0.70
2023-06-30T22:17:44.009Z,0.63
2023-06-30T22:20:46.412Z,0.73
2023-06-30T22:23:49.015Z,1.05
2023-06-30T22:26:51.414Z,1.52
2023-06-30T22:29:53.721Z,1.50
2023-06-30T22:32:56.008Z,1.25
2023-06-30T22:36:00.427Z,1.35
2023-06-30T22:39:02.712Z,0.82
2023-06-30T22:42:05.134Z,1.02
2023-06-30T22:45:08.027Z,1.50
2023-06-30T22:48:10.537Z,1.73
2023-06-30T22:51:12.875Z,1.40
2023-06-30T22:54:14.998Z,0.80
2023-06-30T22:57:19.726Z,1.35
2023-06-30T23:00:22.244Z,1.23
2023-06-30T23:03:24.530Z,1.27
2023-06-30T23:06:27.033Z,1.10
2023-06-30T23:09:29.220Z,2.22
2023-06-30T23:12:31.528Z,1.10
2023-06-30T23:15:33.730Z,1.58
2023-06-30T23:18:36.116Z,0.98
2023-06-30T23:21:39.286Z,1.90
2023-06-30T23:24:41.441Z,1.30
2023-06-30T23:27:43.634Z,0.80
2023-06-30T23:30:48.186Z,1.33
2023-06-30T23:33:50.843Z,0.93
2023-06-30T23:36:53.079Z,1.23
2023-06-30T23:39:55.262Z,1.02
2023-06-30T23:42:57.369Z,1.35
2023-06-30T23:45:59.393Z,1.25
2023-06-30T23:49:01.527Z,0.55
2023-06-30T23:52:03.653Z,0.90
2023-06-30T23:55:06.148Z,0.40
2023-06-30T23:58:08.178Z,1.08
